Mama, Russia
Current Conditions -  °F | °C
As of 5:00 AM on Saturday 25 Oct 2014 (Local Time) from UIAA Reporting Station
Broken Clouds Broken Clouds  
Wind Chill: 23°   Ceiling: 5000
Heat Index: 34°   Visibility: 6mi
Dew Point: 19°   Wind: 18mph
Humidity: 56%   Direction: 250°WSW
Pressure: 29.65"   Gusts: 29mph
Location:  58.31°N, 112.9°E
Report Text: UIAA 242100Z 25008G13MPS 9999 BKN050 01/M07 Q1004 TEMPO27008G15MPS RMK QFE695 29CLRD70
Loading
Personal Weather Stations






























Interactive Weather Map
Tropical Storm Tracking
New forecast layout! Learn more

10-Day Weather Forecast

Advertisements
Track Severe Weather on mobile